Schneifelwetter: Wetterstation Hallschlag, 537 m . NN
Wetterdaten: Montag, 05.04.2010
Datum Zeit Temp. A. Feuchte A. Luftdruck Regen Wind Richtung Richtung Sonnenschein Helligkeit T Regen Taupunkt Windchill
05.04.2010 00:01 2,3 C 97 % 1017 hPa 0,0 l/m 9,2 km/h (2 Bft) W-SW 250 0 min 0 lux 0,00 min 1,9 C -0,3 C
05.04.2010 00:16 2,3 C 97 % 1017 hPa 0,0 l/m 14,3 km/h (3 Bft) W-SW 255 0 min 0 lux 0,00 min 1,9 C -3,8 C
05.04.2010 00:31 2,4 C 97 % 1017 hPa 0,0 l/m 12,5 km/h (3 Bft) W22.5 260 0 min 0 lux 0,00 min 2,0 C -2,6 C
05.04.2010 00:46 2,5 C 97 % 1017 hPa 0,0 l/m 11,6 km/h (2 Bft) W-SW22.5 255 0 min 0 lux 0,00 min 2,1 C -1,9 C
05.04.2010 01:01 2,5 C 97 % 1017 hPa 0,0 l/m 9,6 km/h (2 Bft) W 260 0 min 0 lux 0,00 min 2,1 C -0,4 C
05.04.2010 01:16 2,6 C 97 % 1018 hPa 0,0 l/m 5,7 km/h (1 Bft) W22.5 260 0 min 0 lux 0,00 min 2,2 C 2,6 C
05.04.2010 01:31 2,7 C 97 % 1018 hPa 0,0 l/m 11,3 km/h (2 Bft) W 270 0 min 0 lux 0,00 min 2,3 C -1,4 C
05.04.2010 01:46 2,7 C 97 % 1018 hPa 0,0 l/m 17,3 km/h (3 Bft) W22.5 265 0 min 0 lux 0,00 min 2,3 C -4,9 C
05.04.2010 02:01 2,7 C 97 % 1018 hPa 0,0 l/m 19,1 km/h (3 Bft) W22.5 260 0 min 0 lux 0,00 min 2,3 C -5,7 C
05.04.2010 02:16 2,7 C 97 % 1018 hPa 0,0 l/m 14,2 km/h (3 Bft) W22.5 260 0 min 0 lux 0,00 min 2,3 C -3,3 C
05.04.2010 02:31 2,7 C 97 % 1019 hPa 0,0 l/m 12,8 km/h (3 Bft) W-SW 250 0 min 0 lux 0,00 min 2,3 C -2,4 C
05.04.2010 02:46 2,7 C 97 % 1019 hPa 0,0 l/m 15,7 km/h (3 Bft) W22.5 260 0 min 0 lux 0,00 min 2,3 C -4,1 C
05.04.2010 03:01 2,7 C 97 % 1019 hPa 0,0 l/m 13,6 km/h (3 Bft) W 260 0 min 0 lux 0,00 min 2,3 C -2,9 C
05.04.2010 03:16 2,7 C 97 % 1019 hPa 0,0 l/m 13,0 km/h (3 Bft) W22.5 270 0 min 0 lux 0,00 min 2,3 C -2,5 C
05.04.2010 03:31 2,6 C 97 % 1019 hPa 0,0 l/m 12,3 km/h (3 Bft) W22.5 260 0 min 0 lux 0,00 min 2,2 C -2,2 C
05.04.2010 03:46 2,3 C 96 % 1019 hPa 0,0 l/m 19,3 km/h (3 Bft) W22.5 265 0 min 0 lux 0,00 min 1,7 C -6,4 C
05.04.2010 04:01 2,1 C 96 % 1020 hPa 0,0 l/m 13,6 km/h (3 Bft) W22.5 260 0 min 0 lux 0,00 min 1,5 C -3,6 C
05.04.2010 04:16 2,0 C 96 % 1020 hPa 0,0 l/m 12,5 km/h (3 Bft) W22.5 260 0 min 0 lux 0,00 min 1,4 C -3,0 C
05.04.2010 04:31 1,8 C 96 % 1020 hPa 0,0 l/m 14,0 km/h (3 Bft) W-SW 255 0 min 0 lux 0,00 min 1,2 C -4,2 C
05.04.2010 04:46 1,7 C 97 % 1020 hPa 0,0 l/m 14,4 km/h (3 Bft) W22.5 260 0 min 0 lux 0,00 min 1,3 C -4,6 C
05.04.2010 05:01 1,4 C 96 % 1020 hPa 0,0 l/m 14,9 km/h (3 Bft) W22.5 260 0 min 0 lux 0,00 min 0,8 C -5,2 C
05.04.2010 05:16 1,1 C 96 % 1020 hPa 0,0 l/m 13,9 km/h (3 Bft) W22.5 265 0 min 0 lux 0,00 min 0,5 C -5,0 C
05.04.2010 05:31 0,9 C 96 % 1020 hPa 0,0 l/m 12,3 km/h (3 Bft) W 260 0 min 0 lux 0,00 min 0,3 C -4,2 C
05.04.2010 05:46 0,6 C 96 % 1021 hPa 0,0 l/m 10,6 km/h (2 Bft) W-SW22.5 255 0 min 0 lux 0,00 min 0,0 C -3,3 C
05.04.2010 06:01 0,2 C 96 % 1021 hPa 0,3 l/m 11,1 km/h (2 Bft) W-SW 255 0 min 0 lux 15,00 min -0,4 C -4,1 C
05.04.2010 06:16 -0,2 C 96 % 1021 hPa 0,0 l/m 12,8 km/h (3 Bft) W-SW22.5 255 0 min 0 lux 0,00 min -0,8 C -5,8 C
05.04.2010 06:31 -0,2 C 97 % 1021 hPa 0,0 l/m 14,0 km/h (3 Bft) W-SW22.5 255 0 min 0 lux 0,00 min -0,6 C -6,6 C
05.04.2010 06:46 -0,3 C 97 % 1021 hPa 0,0 l/m 13,2 km/h (3 Bft) W 260 0 min 0 lux 0,00 min -0,7 C -6,2 C
05.04.2010 07:01 0,0 C 97 % 1021 hPa 0,0 l/m 14,5 km/h (3 Bft) W-SW22.5 250 0 min 254 lux 0,00 min -0,4 C -6,7 C
05.04.2010 07:16 0,2 C 98 % 1021 hPa 0,0 l/m 17,0 km/h (3 Bft) W-SW22.5 255 0 min 1,11 klux 0,00 min -0,1 C -7,9 C
05.04.2010 07:31 0,2 C 97 % 1022 hPa 0,0 l/m 12,8 km/h (3 Bft) W-SW22.5 255 0 min 3,19 klux 0,00 min -0,2 C -5,3 C
05.04.2010 07:46 0,3 C 97 % 1022 hPa 0,0 l/m 20,5 km/h (4 Bft) W-SW22.5 250 0 min 5,59 klux 0,00 min -0,1 C -9,5 C
05.04.2010 08:01 0,5 C 97 % 1022 hPa 0,0 l/m 17,2 km/h (3 Bft) W-SW22.5 255 0 min 5,32 klux 0,00 min 0,1 C -7,6 C
05.04.2010 08:16 0,6 C 97 % 1022 hPa 0,0 l/m 15,3 km/h (3 Bft) W22.5 260 0 min 8,19 klux 0,00 min 0,2 C -6,4 C
05.04.2010 08:31 0,9 C 97 % 1022 hPa 0,0 l/m 20,8 km/h (4 Bft) W-SW22.5 250 0 min 16,8 klux 0,00 min 0,5 C -8,8 C
05.04.2010 08:46 1,3 C 97 % 1023 hPa 0,0 l/m 22,3 km/h (4 Bft) W-SW45 255 0 min 14,3 klux 0,00 min 0,9 C -8,9 C
05.04.2010 09:01 1,9 C 98 % 1023 hPa 0,0 l/m 22,3 km/h (4 Bft) W22.5 260 0 min 28,2 klux 0,00 min 1,6 C -8,1 C
05.04.2010 09:16 2,4 C 97 % 1023 hPa 0,0 l/m 19,2 km/h (3 Bft) W-SW22.5 255 0 min 30,5 klux 0,00 min 2,0 C -6,2 C
05.04.2010 09:31 3,0 C 96 % 1023 hPa 0,0 l/m 25,6 km/h (4 Bft) W-SW22.5 255 0 min 47,2 klux 0,00 min 2,4 C -7,9 C
05.04.2010 09:47 3,4 C 96 % 1023 hPa 0,0 l/m 23,3 km/h (4 Bft) W-SW22.5 250 0 min 39,2 klux 0,00 min 2,8 C -6,5 C
05.04.2010 10:01 4,1 C 94 % 1023 hPa 0,0 l/m 20,5 km/h (4 Bft) W-SW22.5 255 14 min 59,1 klux 0,00 min 3,2 C -4,5 C
05.04.2010 10:16 4,3 C 92 % 1023 hPa 0,0 l/m 14,8 km/h (3 Bft) W-SW22.5 255 0 min 37,3 klux 0,00 min 3,1 C -1,7 C
05.04.2010 10:31 4,5 C 91 % 1024 hPa 0,0 l/m 21,8 km/h (4 Bft) W-SW22.5 245 15 min 54,8 klux 0,00 min 3,2 C -4,5 C
05.04.2010 10:46 5,7 C 90 % 1023 hPa 0,0 l/m 23,3 km/h (4 Bft) W-SW67.5 240 15 min 53,7 klux 0,00 min 4,2 C -3,4 C
05.04.2010 11:01 6,0 C 87 % 1024 hPa 0,0 l/m 25,0 km/h (4 Bft) W-SW22.5 245 15 min 55,7 klux 0,00 min 4,0 C -3,6 C
05.04.2010 11:16 6,0 C 86 % 1024 hPa 0,0 l/m 23,3 km/h (4 Bft) W-SW45 240 15 min 60,8 klux 0,00 min 3,8 C -3,0 C
05.04.2010 11:31 6,5 C 86 % 1024 hPa 0,0 l/m 21,8 km/h (4 Bft) W-SW22.5 250 15 min 71,6 klux 0,00 min 4,3 C -1,9 C
05.04.2010 11:46 7,0 C 84 % 1024 hPa 0,0 l/m 21,8 km/h (4 Bft) W-SW22.5 255 15 min 63,0 klux 0,00 min 4,5 C -1,2 C
05.04.2010 12:01 7,3 C 82 % 1024 hPa 0,0 l/m 20,5 km/h (4 Bft) W22.5 260 15 min 60,5 klux 0,00 min 4,4 C -0,4 C
05.04.2010 12:16 7,3 C 80 % 1024 hPa 0,0 l/m 20,6 km/h (4 Bft) W-SW45 245 15 min 60,9 klux 0,00 min 4,1 C -0,4 C
05.04.2010 12:31 7,8 C 80 % 1024 hPa 0,0 l/m 25,1 km/h (4 Bft) W-SW22.5 250 15 min 62,8 klux 0,00 min 4,6 C -1,2 C
05.04.2010 12:46 7,8 C 79 % 1024 hPa 0,0 l/m 20,8 km/h (4 Bft) W-SW22.5 250 15 min 66,0 klux 0,00 min 4,4 C 0,2 C
05.04.2010 13:02 7,8 C 79 % 1024 hPa 0,0 l/m 25,1 km/h (4 Bft) W-SW45 250 16 min 66,8 klux 0,00 min 4,4 C -1,2 C
05.04.2010 13:16 8,1 C 76 % 1024 hPa 0,0 l/m 29,5 km/h (5 Bft) W-SW45 240 14 min 71,4 klux 0,00 min 4,1 C -1,9 C
05.04.2010 13:31 7,9 C 74 % 1024 hPa 0,0 l/m 29,3 km/h (5 Bft) W-SW45 255 15 min 83,2 klux 0,00 min 3,6 C -2,1 C
05.04.2010 13:46 7,7 C 74 % 1024 hPa 0,0 l/m 27,4 km/h (4 Bft) SW45 225 15 min 81,6 klux 0,00 min 3,4 C -1,9 C
05.04.2010 14:01 8,3 C 75 % 1024 hPa 0,0 l/m 19,0 km/h (3 Bft) W-SW22.5 240 15 min 85,3 klux 0,00 min 4,1 C 1,4 C
05.04.2010 14:16 8,7 C 71 % 1024 hPa 0,0 l/m 25,6 km/h (4 Bft) W-SW45 240 15 min 84,5 klux 0,00 min 3,7 C -0,1 C
05.04.2010 14:31 8,6 C 68 % 1024 hPa 0,0 l/m 25,1 km/h (4 Bft) W-SW22.5 255 0 min 34,4 klux 0,00 min 3,0 C -0,1 C
05.04.2010 14:47 8,5 C 68 % 1024 hPa 0,0 l/m 30,0 km/h (5 Bft) W-SW45 245 16 min 68,8 klux 0,00 min 2,9 C -1,5 C
05.04.2010 15:01 8,8 C 67 % 1024 hPa 0,0 l/m 27,1 km/h (4 Bft) W-SW45 240 14 min 55,7 klux 0,00 min 3,0 C -0,3 C
05.04.2010 15:16 8,9 C 66 % 1024 hPa 0,0 l/m 34,9 km/h (5 Bft) W-SW22.5 255 15 min 73,0 klux 0,00 min 2,9 C -1,9 C
05.04.2010 15:31 9,1 C 66 % 1024 hPa 0,0 l/m 30,2 km/h (5 Bft) W45 260 15 min 69,9 klux 0,00 min 3,1 C -0,7 C
05.04.2010 15:46 9,4 C 60 % 1024 hPa 0,0 l/m 31,8 km/h (5 Bft) W-SW45 255 15 min 77,4 klux 0,00 min 2,0 C -0,6 C
05.04.2010 16:01 8,9 C 63 % 1024 hPa 0,0 l/m 37,0 km/h (5 Bft) W-SW22.5 255 15 min 78,7 klux 0,00 min 2,2 C -2,3 C
05.04.2010 16:16 9,4 C 62 % 1024 hPa 0,0 l/m 29,4 km/h (5 Bft) W-SW45 245 15 min 71,0 klux 0,00 min 2,5 C -0,1 C
05.04.2010 16:31 9,5 C 62 % 1024 hPa 0,0 l/m 31,8 km/h (5 Bft) SW45 235 15 min 72,0 klux 0,00 min 2,6 C -0,4 C
05.04.2010 16:46 9,2 C 62 % 1024 hPa 0,0 l/m 31,8 km/h (5 Bft) W-SW22.5 250 15 min 58,0 klux 0,00 min 2,3 C -0,9 C
05.04.2010 17:01 9,1 C 62 % 1024 hPa 0,0 l/m 31,0 km/h (5 Bft) W-SW45 255 15 min 66,7 klux 0,00 min 2,2 C -0,8 C
05.04.2010 17:16 9,2 C 62 % 1024 hPa 0,0 l/m 32,0 km/h (5 Bft) W-SW22.5 255 15 min 62,1 klux 0,00 min 2,3 C -0,9 C
05.04.2010 17:31 8,3 C 61 % 1024 hPa 0,0 l/m 25,8 km/h (4 Bft) W-SW22.5 250 0 min 22,9 klux 0,00 min 1,2 C -0,7 C
05.04.2010 17:46 8,0 C 63 % 1024 hPa 0,0 l/m 20,6 km/h (4 Bft) W-SW22.5 250 0 min 22,4 klux 0,00 min 1,4 C 0,5 C
05.04.2010 18:02 7,7 C 63 % 1024 hPa 0,0 l/m 26,3 km/h (4 Bft) W-SW45 250 0 min 19,8 klux 0,00 min 1,1 C -1,6 C
05.04.2010 18:16 7,8 C 63 % 1024 hPa 0,0 l/m 29,8 km/h (5 Bft) W-SW45 250 0 min 25,5 klux 0,00 min 1,2 C -2,4 C
05.04.2010 18:31 7,8 C 64 % 1024 hPa 0,0 l/m 27,1 km/h (4 Bft) W-SW22.5 255 0 min 23,8 klux 0,00 min 1,4 C -1,7 C
05.04.2010 18:46 7,7 C 64 % 1024 hPa 0,0 l/m 24,6 km/h (4 Bft) W-SW22.5 255 0 min 32,0 klux 0,00 min 1,3 C -1,2 C
05.04.2010 19:01 7,6 C 64 % 1024 hPa 0,0 l/m 24,3 km/h (4 Bft) W-SW22.5 255 0 min 15,3 klux 0,00 min 1,2 C -1,2 C
05.04.2010 19:16 7,3 C 64 % 1024 hPa 0,0 l/m 19,8 km/h (3 Bft) W-SW22.5 250 0 min 17,2 klux 0,00 min 1,0 C -0,1 C
05.04.2010 19:31 6,9 C 66 % 1024 hPa 0,0 l/m 18,6 km/h (3 Bft) W-SW22.5 250 0 min 7,31 klux 0,00 min 1,0 C -0,2 C
05.04.2010 19:47 6,1 C 68 % 1024 hPa 0,0 l/m 15,6 km/h (3 Bft) W-SW22.5 245 0 min 4,12 klux 0,00 min 0,6 C 0,1 C
05.04.2010 20:01 5,4 C 69 % 1024 hPa 0,0 l/m 9,3 km/h (2 Bft) SW22.5 235 0 min 2,22 klux 0,00 min 0,2 C 3,0 C
05.04.2010 20:16 4,6 C 70 % 1024 hPa 0,0 l/m 6,3 km/h (2 Bft) W-SW 250 0 min 1,28 klux 0,00 min -0,4 C 4,6 C
05.04.2010 20:31 3,8 C 72 % 1024 hPa 0,0 l/m 0,9 km/h (0 Bft) W-SW 250 0 min 326 lux 0,00 min -0,8 C 3,8 C
05.04.2010 20:46 3,1 C 73 % 1024 hPa 0,0 l/m 0,0 km/h (0 Bft) W-SW 250 0 min 42 lux 0,00 min -1,3 C 3,1 C
05.04.2010 21:01 2,4 C 75 % 1024 hPa 0,0 l/m 0,0 km/h (0 Bft) W-SW 250 0 min 6 lux 0,00 min -1,6 C 2,4 C
05.04.2010 21:17 1,7 C 76 % 1024 hPa 0,0 l/m 0,0 km/h (0 Bft) W-SW 250 0 min 0 lux 0,00 min -2,1 C 1,7 C
05.04.2010 21:31 1,2 C 78 % 1024 hPa 0,0 l/m 0,0 km/h (0 Bft) W-SW 250 0 min 0 lux 0,00 min -2,2 C 1,2 C
05.04.2010 21:46 0,9 C 79 % 1024 hPa 0,0 l/m 0,0 km/h (0 Bft) W-SW 250 0 min 0 lux 0,00 min -2,3 C 0,9 C
05.04.2010 22:01 0,7 C 81 % 1024 hPa 0,0 l/m 0,0 km/h (0 Bft) W-SW 250 0 min 0 lux 0,00 min -2,2 C 0,7 C
05.04.2010 22:16 0,5 C 81 % 1024 hPa 0,0 l/m 0,0 km/h (0 Bft) W-SW 250 0 min 0 lux 0,00 min -2,4 C 0,5 C
05.04.2010 22:31 0,0 C 82 % 1024 hPa 0,0 l/m 0,0 km/h (0 Bft) W-SW 250 0 min 0 lux 0,00 min -2,7 C 0,0 C
05.04.2010 22:46 -0,6 C 83 % 1024 hPa 0,0 l/m 0,0 km/h (0 Bft) W-SW 250 0 min 0 lux 0,00 min -3,1 C -0,6 C
05.04.2010 23:02 -0,8 C 84 % 1024 hPa 0,0 l/m 0,0 km/h (0 Bft) W-SW 250 0 min 0 lux 0,00 min -3,2 C -0,8 C
05.04.2010 23:16 -1,0 C 85 % 1024 hPa 0,0 l/m 0,0 km/h (0 Bft) W-SW 250 0 min 0 lux 0,00 min -3,2 C -1,0 C
05.04.2010 23:31 -1,4 C 85 % 1024 hPa 0,0 l/m 0,0 km/h (0 Bft) W-SW 250 0 min 0 lux 0,00 min -3,6 C -1,4 C
05.04.2010 23:46 -1,7 C 86 % 1024 hPa 0,0 l/m 0,0 km/h (0 Bft) W-SW 250 0 min 0 lux 0,00 min -3,7 C -1,7 C
05.04.2010 23:55 -2,0 C 86 % 1024 hPa 0,0 l/m 0,0 km/h (0 Bft) W-SW 250 0 min 0 lux 0,00 min -4,0 C -2,0 C
_ Min-Zeit 23:55 15:46 00:01 - 20:46 - - - - - 23:55 07:46
Minimum _ -2,0 C 60 % 1017 hPa - 0,0 km/h (0 Bft) - - - - - -4,0 C -9,5 C
_ Max-Zeit 16:31 07:16 10:31 06:01 16:01 - - 13:02 14:01 06:01 12:31 20:16
Maximum _ 9,5 C 98 % 1024 hPa 0,3 l/m 37,0 km/h
W-SW (5 Bft)
- - 16 min 85,3 klux 15,00 min 4,6 C 4,6 C
Durchschnitt _ 4,0 C 84 % 1023 hPa #0,3 l/m 16,9 km/h (3 Bft) W-SW - #6:59 h 24,3 klux #15 min. 1,3 C -2,3 C